createdAt,value
2018-09-30T00:00:00.527Z,56071.71
2018-09-30T00:02:29.689Z,56079.94
2018-09-30T00:04:58.878Z,56066.57
2018-09-30T00:07:28.048Z,56091.25
2018-09-30T00:09:57.215Z,56105.64
2018-09-30T00:12:26.347Z,56122.09
2018-09-30T00:14:55.513Z,56122.09
2018-09-30T00:17:24.717Z,56100.50
2018-09-30T00:19:53.911Z,56108.73
2018-09-30T00:22:23.077Z,56073.77
2018-09-30T00:24:57.653Z,56115.93
2018-09-30T00:27:26.800Z,56116.95
2018-09-30T00:29:55.936Z,56121.07
2018-09-30T00:32:25.095Z,56127.23
2018-09-30T00:34:54.253Z,56106.67
2018-09-30T00:37:23.456Z,56117.98
2018-09-30T00:39:52.667Z,56084.05
2018-09-30T00:42:21.835Z,56086.11
2018-09-30T00:44:50.992Z,56111.81
2018-09-30T00:47:20.185Z,56122.09
2018-09-30T00:49:49.319Z,56089.19
2018-09-30T00:52:18.495Z,56114.90
2018-09-30T00:54:47.636Z,56146.77
2018-09-30T00:57:16.839Z,56112.84
2018-09-30T00:59:46.104Z,56110.79
2018-09-30T01:02:15.285Z,56119.01
2018-09-30T01:04:44.465Z,56145.75
2018-09-30T01:07:13.598Z,56111.81
2018-09-30T01:09:42.811Z,56122.09
2018-09-30T01:12:11.996Z,56141.63
2018-09-30T01:14:41.250Z,56141.63
2018-09-30T01:17:10.416Z,56111.81
2018-09-30T01:19:39.587Z,56096.39
2018-09-30T01:22:08.815Z,56104.62
2018-09-30T01:24:37.950Z,56104.62
2018-09-30T01:27:07.163Z,56129.29
2018-09-30T01:29:36.320Z,56086.11
2018-09-30T01:32:05.564Z,56104.62
2018-09-30T01:34:34.740Z,56133.41
2018-09-30T01:37:03.925Z,56082.00
2018-09-30T01:39:33.111Z,56106.67
2018-09-30T01:42:02.290Z,56082.00
2018-09-30T01:44:31.424Z,56129.29
2018-09-30T01:47:00.592Z,56114.90
2018-09-30T01:49:29.810Z,56145.75
2018-09-30T01:52:16.300Z,56079.94
2018-09-30T01:54:45.499Z,56136.49
2018-09-30T01:57:14.710Z,56098.45
2018-09-30T01:59:43.898Z,56092.28
2018-09-30T02:02:13.064Z,56119.01
2018-09-30T02:04:42.330Z,56092.28
2018-09-30T02:07:11.477Z,56103.59
2018-09-30T02:09:40.669Z,56112.84
2018-09-30T02:12:09.880Z,56122.09
2018-09-30T02:14:39.005Z,56119.01
2018-09-30T02:17:08.158Z,56071.71
2018-09-30T02:19:37.318Z,56126.21
2018-09-30T02:22:06.490Z,56119.01
2018-09-30T02:24:35.600Z,56097.42
2018-09-30T02:27:04.747Z,56090.22
2018-09-30T02:29:33.944Z,56102.56
2018-09-30T02:32:03.103Z,56109.76
2018-09-30T02:34:32.246Z,56128.27
2018-09-30T02:37:01.406Z,56110.79
2018-09-30T02:39:30.568Z,56089.19
2018-09-30T02:41:59.760Z,56102.56
2018-09-30T02:44:28.934Z,56116.95
2018-09-30T02:46:58.101Z,56124.15
2018-09-30T02:49:27.340Z,56093.30
2018-09-30T02:51:56.545Z,56108.73
2018-09-30T02:54:25.705Z,56100.50
2018-09-30T02:56:54.963Z,56105.64
2018-09-30T02:59:24.137Z,56109.76
2018-09-30T03:01:53.298Z,56114.90
2018-09-30T03:04:22.490Z,56126.21
2018-09-30T03:06:57.030Z,56104.62
2018-09-30T03:09:26.197Z,56127.23
2018-09-30T03:11:55.330Z,56103.59
2018-09-30T03:14:24.519Z,56110.79
2018-09-30T03:16:53.642Z,56096.39
2018-09-30T03:19:22.804Z,56113.87
2018-09-30T03:21:56.580Z,56116.95
2018-09-30T03:24:25.685Z,56064.51
2018-09-30T03:26:54.782Z,56130.32
2018-09-30T03:29:23.937Z,56099.47
2018-09-30T03:31:53.058Z,56104.62
2018-09-30T03:34:22.181Z,56114.90
2018-09-30T03:36:51.269Z,56117.98
2018-09-30T03:39:20.399Z,56133.41
2018-09-30T03:41:49.487Z,56098.45
2018-09-30T03:44:18.676Z,56097.42
2018-09-30T03:46:47.774Z,56092.28
2018-09-30T03:49:16.874Z,56135.46
2018-09-30T03:51:46.021Z,56121.07
2018-09-30T03:54:15.200Z,56102.56
2018-09-30T03:56:44.404Z,56125.18
2018-09-30T03:59:13.439Z,56087.14
2018-09-30T04:01:42.567Z,56168.37
2018-09-30T04:04:11.695Z,56090.22
2018-09-30T04:06:40.810Z,56125.18
2018-09-30T04:09:10.337Z,56088.16
2018-09-30T04:11:39.579Z,56159.11
2018-09-30T04:14:08.758Z,56127.23
2018-09-30T04:16:37.922Z,56122.09
2018-09-30T04:19:07.065Z,56137.52
2018-09-30T04:21:36.178Z,56110.79
2018-09-30T04:24:08.212Z,56112.84
2018-09-30T04:26:38.394Z,56142.66
2018-09-30T04:29:07.676Z,56164.25
2018-09-30T04:31:36.836Z,56116.95
2018-09-30T04:34:06.116Z,56146.77
2018-09-30T04:36:36.115Z,56132.38
2018-09-30T04:39:07.954Z,56146.77
2018-09-30T04:41:37.070Z,56124.15
2018-09-30T04:44:06.194Z,56125.18
2018-09-30T04:46:35.327Z,56130.32
2018-09-30T04:49:04.445Z,56168.37
2018-09-30T04:51:33.592Z,56096.39
2018-09-30T04:54:02.725Z,56121.07
2018-09-30T04:56:31.829Z,56123.12
2018-09-30T04:59:00.977Z,56155.00
2018-09-30T05:01:30.124Z,56090.22
2018-09-30T05:03:59.301Z,56124.15
2018-09-30T05:06:28.468Z,56131.35
2018-09-30T05:08:57.604Z,56149.86
2018-09-30T05:11:26.799Z,56137.52
2018-09-30T05:13:55.895Z,56158.09
2018-09-30T05:16:25.059Z,56123.12
2018-09-30T05:18:54.163Z,56104.62
2018-09-30T05:21:23.289Z,56108.73
2018-09-30T05:23:52.426Z,56129.29
2018-09-30T05:26:21.548Z,56151.91
2018-09-30T05:28:50.712Z,56133.41
2018-09-30T05:31:20.017Z,56147.80
2018-09-30T05:33:49.103Z,56131.35
2018-09-30T05:36:18.275Z,56096.39
2018-09-30T05:38:47.539Z,56135.46
2018-09-30T05:41:16.715Z,56123.12
2018-09-30T05:43:45.847Z,56128.27
2018-09-30T05:46:15.003Z,56128.27
2018-09-30T05:48:44.194Z,56119.01
2018-09-30T05:51:13.348Z,56135.46
2018-09-30T05:53:42.462Z,56155.00
2018-09-30T05:56:11.597Z,56133.41
2018-09-30T05:58:40.734Z,56104.62
2018-09-30T06:01:09.834Z,56112.84
2018-09-30T06:03:39.008Z,56119.01
2018-09-30T06:06:08.101Z,56102.56
2018-09-30T06:08:37.214Z,56096.39
2018-09-30T06:11:06.389Z,56101.53
2018-09-30T06:13:35.517Z,56116.95
2018-09-30T06:16:04.702Z,56117.98
2018-09-30T06:18:33.849Z,56096.39
2018-09-30T06:21:02.979Z,56106.67
2018-09-30T06:23:32.321Z,56122.09
2018-09-30T06:26:01.515Z,56085.08
2018-09-30T06:28:30.666Z,56133.41
2018-09-30T06:30:59.764Z,56085.08
2018-09-30T06:33:28.859Z,56104.62
2018-09-30T06:35:57.982Z,56117.98
2018-09-30T06:38:27.063Z,56093.30
2018-09-30T06:40:56.207Z,56080.96
2018-09-30T06:43:25.408Z,56108.73
2018-09-30T06:45:54.508Z,56115.93
2018-09-30T06:48:23.857Z,56090.22
2018-09-30T06:50:52.979Z,56100.50
2018-09-30T06:53:22.139Z,56061.43
2018-09-30T06:55:51.246Z,56073.77
2018-09-30T06:58:20.381Z,56102.56
2018-09-30T07:00:49.561Z,56094.33
2018-09-30T07:03:18.754Z,56059.37
2018-09-30T07:05:48.920Z,56047.03
2018-09-30T07:08:18.017Z,56059.37
2018-09-30T07:10:47.208Z,56059.37
2018-09-30T07:13:16.344Z,56096.39
2018-09-30T07:15:45.445Z,56096.39
2018-09-30T07:18:15.643Z,56080.96
2018-09-30T07:20:44.829Z,56055.26
2018-09-30T07:23:13.937Z,56080.96
2018-09-30T07:25:43.038Z,56056.29
2018-09-30T07:28:12.124Z,56036.75
2018-09-30T07:30:41.227Z,56056.29
2018-09-30T07:33:10.326Z,56063.48
2018-09-30T07:35:39.417Z,56047.03
2018-09-30T07:38:08.497Z,56059.37
2018-09-30T07:40:38.489Z,56057.32
2018-09-30T07:43:07.627Z,56060.40
2018-09-30T07:45:36.859Z,56050.12
2018-09-30T07:48:05.959Z,56070.68
2018-09-30T07:50:35.108Z,56052.18
2018-09-30T07:53:04.193Z,56055.26
2018-09-30T07:55:33.318Z,56022.36
2018-09-30T07:58:02.428Z,56048.06
2018-09-30T08:00:31.554Z,56031.61
2018-09-30T08:03:00.689Z,56025.44
2018-09-30T08:05:29.802Z,56014.13
2018-09-30T08:07:58.886Z,56021.33
2018-09-30T08:10:27.989Z,56016.19
2018-09-30T08:12:57.053Z,56016.19
2018-09-30T08:15:26.187Z,56020.30
2018-09-30T08:17:55.274Z,56036.75
2018-09-30T08:20:24.376Z,56032.64
2018-09-30T08:22:53.598Z,56022.36
2018-09-30T08:25:22.763Z,56016.19
2018-09-30T08:27:52.023Z,56029.55
2018-09-30T08:30:21.115Z,55997.68
2018-09-30T08:32:50.254Z,56003.85
2018-09-30T08:35:19.378Z,56018.24
2018-09-30T08:37:53.914Z,55971.97
2018-09-30T08:40:28.309Z,55965.80
2018-09-30T08:42:57.698Z,56016.19
2018-09-30T08:45:26.826Z,55999.73
2018-09-30T08:47:55.955Z,56007.96
2018-09-30T08:50:25.088Z,55997.68
2018-09-30T08:52:54.202Z,55989.45
2018-09-30T08:55:23.335Z,56001.79
2018-09-30T08:57:52.529Z,55983.28
2018-09-30T09:00:21.689Z,56014.13
2018-09-30T09:02:50.823Z,55979.17
2018-09-30T09:05:19.955Z,55977.11
2018-09-30T09:07:49.099Z,55976.09
2018-09-30T09:10:18.229Z,56006.93
2018-09-30T09:12:47.386Z,55997.68
2018-09-30T09:15:16.579Z,55957.58
2018-09-30T09:17:45.684Z,55981.23
2018-09-30T09:20:14.799Z,55932.90
2018-09-30T09:22:43.950Z,55896.91
2018-09-30T09:25:13.039Z,55851.68
2018-09-30T09:27:42.166Z,55833.17
2018-09-30T09:30:11.269Z,55849.62
2018-09-30T09:32:40.371Z,55848.59
2018-09-30T09:35:10.488Z,55870.18
2018-09-30T09:37:39.834Z,55821.86
2018-09-30T09:40:10.882Z,55841.39
2018-09-30T09:42:40.191Z,55821.86
2018-09-30T09:45:09.395Z,55832.14
2018-09-30T09:47:38.587Z,55840.36
2018-09-30T09:50:08.478Z,55865.04
2018-09-30T09:52:37.698Z,55876.35
2018-09-30T09:55:06.738Z,55880.46
2018-09-30T09:57:35.813Z,55880.46
2018-09-30T10:00:05.060Z,55856.81
2018-09-30T10:02:34.182Z,55896.91
2018-09-30T10:05:03.389Z,55911.31
2018-09-30T10:07:32.478Z,55881.49
2018-09-30T10:10:01.634Z,55886.63
2018-09-30T10:12:30.704Z,55894.86
2018-09-30T10:14:59.837Z,55897.94
2018-09-30T10:17:28.969Z,55917.48
2018-09-30T10:19:58.071Z,55925.70
2018-09-30T10:22:27.238Z,55912.34
2018-09-30T10:24:56.444Z,55903.08
2018-09-30T10:27:25.567Z,55917.48
2018-09-30T10:29:54.708Z,55910.28
2018-09-30T10:32:23.901Z,55904.11
2018-09-30T10:34:53.126Z,55916.45
2018-09-30T10:37:22.238Z,55915.42
2018-09-30T10:39:51.393Z,55977.11
2018-09-30T10:42:20.508Z,55933.93
2018-09-30T10:44:49.622Z,55903.08
2018-09-30T10:47:18.745Z,55977.11
2018-09-30T10:49:47.849Z,55966.83
2018-09-30T10:52:17.006Z,55956.55
2018-09-30T10:54:46.102Z,55931.87
2018-09-30T10:57:16.051Z,55977.11
2018-09-30T10:59:45.167Z,55942.16
2018-09-30T11:02:14.305Z,55971.97
2018-09-30T11:04:43.409Z,55938.04
2018-09-30T11:07:12.519Z,55978.14
2018-09-30T11:09:41.699Z,55970.95
2018-09-30T11:12:10.797Z,55989.45
2018-09-30T11:14:39.897Z,56005.90
2018-09-30T11:17:09.069Z,56042.92
2018-09-30T11:19:38.160Z,56022.36
2018-09-30T11:22:07.256Z,56023.38
2018-09-30T11:24:36.522Z,56038.81
2018-09-30T11:27:05.863Z,56033.67
2018-09-30T11:29:35.017Z,56035.72
2018-09-30T11:32:04.165Z,56024.41
2018-09-30T11:34:33.287Z,56033.67
2018-09-30T11:37:02.447Z,56016.19
2018-09-30T11:39:31.592Z,56001.79
2018-09-30T11:42:00.737Z,56017.21
2018-09-30T11:44:29.874Z,56016.19
2018-09-30T11:46:58.985Z,55986.37
2018-09-30T11:49:28.102Z,55984.31
2018-09-30T11:51:57.251Z,55998.71
2018-09-30T11:54:26.335Z,56012.07
2018-09-30T11:56:55.522Z,56004.87
2018-09-30T11:59:24.635Z,56016.19
2018-09-30T12:01:53.781Z,56004.87
2018-09-30T12:04:22.945Z,55997.68
2018-09-30T12:06:52.056Z,55998.71
2018-09-30T12:09:21.205Z,56016.19
2018-09-30T12:11:50.315Z,56000.76
2018-09-30T12:14:19.427Z,56014.13
2018-09-30T12:16:48.525Z,55993.57
2018-09-30T12:19:17.657Z,56003.85
2018-09-30T12:21:46.813Z,55997.68
2018-09-30T12:24:15.908Z,55978.14
2018-09-30T12:26:45.010Z,56003.85
2018-09-30T12:29:14.155Z,55982.25
2018-09-30T12:31:43.270Z,55976.09
2018-09-30T12:34:12.419Z,55969.92
2018-09-30T12:36:41.522Z,55976.09
2018-09-30T12:39:11.466Z,55989.45
2018-09-30T12:41:40.553Z,56007.96
2018-09-30T12:44:09.677Z,55969.92
2018-09-30T12:46:38.820Z,55969.92
2018-09-30T12:49:07.946Z,55960.66
2018-09-30T12:51:37.071Z,55935.98
2018-09-30T12:54:06.199Z,55968.89
2018-09-30T12:56:35.301Z,55974.03
2018-09-30T12:59:04.421Z,55941.13
2018-09-30T13:01:33.550Z,55950.38
2018-09-30T13:04:02.695Z,55958.61
2018-09-30T13:06:31.809Z,55942.16
2018-09-30T13:09:00.932Z,55944.21
2018-09-30T13:11:30.103Z,55924.68
2018-09-30T13:13:59.254Z,55933.93
2018-09-30T13:16:28.341Z,55935.98
2018-09-30T13:18:57.482Z,55949.35
2018-09-30T13:21:26.689Z,55932.90
2018-09-30T13:23:55.786Z,55929.82
2018-09-30T13:26:24.930Z,55932.90
2018-09-30T13:28:54.082Z,55925.70
2018-09-30T13:31:23.640Z,55968.89
2018-09-30T13:33:52.795Z,55935.98
2018-09-30T13:36:21.931Z,55942.16
2018-09-30T13:38:51.091Z,55927.76
2018-09-30T13:41:20.210Z,55966.83
2018-09-30T13:43:49.376Z,55963.75
2018-09-30T13:46:18.593Z,55940.10
2018-09-30T13:48:47.646Z,55967.86
2018-09-30T13:51:16.795Z,55959.63
2018-09-30T13:53:45.931Z,55956.55
2018-09-30T13:56:15.038Z,55953.46
2018-09-30T13:58:44.163Z,55931.87
2018-09-30T14:01:13.310Z,55956.55
2018-09-30T14:03:42.500Z,55965.80
2018-09-30T14:06:11.651Z,55955.52
2018-09-30T14:08:40.817Z,55964.78
2018-09-30T14:11:09.913Z,55954.49
2018-09-30T14:13:39.054Z,55967.86
2018-09-30T14:16:08.436Z,55948.32
2018-09-30T14:18:37.516Z,55966.83
2018-09-30T14:21:06.645Z,55932.90
2018-09-30T14:23:35.825Z,55964.78
2018-09-30T14:26:04.975Z,55964.78
2018-09-30T14:28:34.077Z,55949.35
2018-09-30T14:31:03.192Z,55971.97
2018-09-30T14:33:32.453Z,55983.28
2018-09-30T14:36:01.637Z,55985.34
2018-09-30T14:38:30.793Z,55952.44
2018-09-30T14:40:59.888Z,55992.54
2018-09-30T14:43:29.018Z,55951.41
2018-09-30T14:45:58.130Z,55935.98
2018-09-30T14:48:27.320Z,55949.35
2018-09-30T14:50:56.434Z,55989.45
2018-09-30T14:53:25.537Z,55960.66
2018-09-30T14:55:54.638Z,55952.44
2018-09-30T14:58:23.774Z,55943.18
2018-09-30T15:00:52.886Z,55973.00
2018-09-30T15:03:22.063Z,55963.75
2018-09-30T15:05:51.204Z,56001.79
2018-09-30T15:08:20.347Z,56006.93
2018-09-30T15:10:49.421Z,55950.38
2018-09-30T15:13:18.583Z,55960.66
2018-09-30T15:15:47.712Z,55986.37
2018-09-30T15:18:16.894Z,56007.96
2018-09-30T15:20:46.086Z,55979.17
2018-09-30T15:23:15.224Z,55976.09
2018-09-30T15:25:44.386Z,55948.32
2018-09-30T15:28:13.527Z,55963.75
2018-09-30T15:30:42.637Z,55987.40
2018-09-30T15:33:11.774Z,55966.83
2018-09-30T15:35:40.871Z,55991.51
2018-09-30T15:38:10.151Z,55988.43
2018-09-30T15:40:39.258Z,55952.44
2018-09-30T15:43:08.357Z,56005.90
2018-09-30T15:45:37.497Z,55962.72
2018-09-30T15:48:06.634Z,55970.95
2018-09-30T15:50:35.810Z,55983.28
2018-09-30T15:53:04.980Z,56014.13
2018-09-30T15:55:34.104Z,56005.90
2018-09-30T15:58:03.205Z,55988.43
2018-09-30T16:00:32.435Z,56017.21
2018-09-30T16:03:01.588Z,55991.51
2018-09-30T16:05:30.772Z,55995.62
2018-09-30T16:07:59.905Z,55995.62
2018-09-30T16:10:29.082Z,55978.14
2018-09-30T16:12:58.215Z,56001.79
2018-09-30T16:15:27.350Z,56000.76
2018-09-30T16:17:56.508Z,56003.85
2018-09-30T16:20:25.624Z,56003.85
2018-09-30T16:22:54.768Z,56011.05
2018-09-30T16:25:23.897Z,56033.67
2018-09-30T16:27:53.065Z,56014.13
2018-09-30T16:30:22.197Z,56010.02
2018-09-30T16:32:51.567Z,55995.62
2018-09-30T16:35:21.058Z,56020.30
2018-09-30T16:37:50.214Z,55991.51
2018-09-30T16:40:19.322Z,56029.55
2018-09-30T16:42:48.412Z,56039.84
2018-09-30T16:45:17.706Z,56017.21
2018-09-30T16:47:47.371Z,56007.96
2018-09-30T16:50:16.520Z,56038.81
2018-09-30T16:52:45.749Z,56054.23
2018-09-30T16:55:14.896Z,56027.50
2018-09-30T16:57:44.022Z,56022.36
2018-09-30T17:00:13.199Z,56047.03
2018-09-30T17:02:42.293Z,56060.40
2018-09-30T17:05:11.398Z,56047.03
2018-09-30T17:07:40.662Z,56030.58
2018-09-30T17:10:09.977Z,56058.34
2018-09-30T17:12:39.116Z,56055.26
2018-09-30T17:15:08.538Z,56047.03
2018-09-30T17:17:37.629Z,56034.70
2018-09-30T17:20:06.736Z,56075.82
2018-09-30T17:22:35.882Z,56054.23
2018-09-30T17:25:04.996Z,56048.06
2018-09-30T17:27:34.125Z,56030.58
2018-09-30T17:30:03.238Z,56018.24
2018-09-30T17:32:32.403Z,56077.88
2018-09-30T17:35:01.502Z,56064.51
2018-09-30T17:37:30.601Z,56049.09
2018-09-30T17:39:59.739Z,56049.09
2018-09-30T17:42:28.862Z,56054.23
2018-09-30T17:44:58.022Z,56022.36
2018-09-30T17:47:27.110Z,56058.34
2018-09-30T17:49:56.255Z,56053.20
2018-09-30T17:52:25.390Z,56084.05
2018-09-30T17:54:54.512Z,56079.94
2018-09-30T17:57:23.652Z,56078.91
2018-09-30T17:59:52.792Z,56024.41
2018-09-30T18:02:21.914Z,56044.98
2018-09-30T18:04:51.051Z,56054.23
2018-09-30T18:07:20.195Z,56053.20
2018-09-30T18:09:49.419Z,56049.09
2018-09-30T18:12:18.536Z,56046.00
2018-09-30T18:14:47.682Z,56084.05
2018-09-30T18:17:16.810Z,56055.26
2018-09-30T18:19:45.905Z,56071.71
2018-09-30T18:22:15.297Z,56075.82
2018-09-30T18:24:44.463Z,56048.06
2018-09-30T18:27:13.576Z,56064.51
2018-09-30T18:29:42.712Z,56032.64
2018-09-30T18:32:11.782Z,56046.00
2018-09-30T18:34:40.990Z,56047.03
2018-09-30T18:37:10.115Z,56070.68
2018-09-30T18:39:39.219Z,56055.26
2018-09-30T18:42:08.365Z,56055.26
2018-09-30T18:44:37.502Z,56074.80
2018-09-30T18:47:06.721Z,56044.98
2018-09-30T18:49:35.858Z,56030.58
2018-09-30T18:52:04.942Z,56061.43
2018-09-30T18:54:34.109Z,56067.60
2018-09-30T18:57:03.238Z,56063.48
2018-09-30T18:59:32.369Z,56037.78
2018-09-30T19:02:01.461Z,56062.46
2018-09-30T19:04:30.558Z,56044.98
2018-09-30T19:06:59.685Z,56067.60
2018-09-30T19:09:28.798Z,56034.70
2018-09-30T19:11:57.940Z,56055.26
2018-09-30T19:14:26.969Z,56057.32
2018-09-30T19:16:56.110Z,56057.32
2018-09-30T19:19:25.189Z,56044.98
2018-09-30T19:21:54.289Z,56039.84
2018-09-30T19:24:23.405Z,56053.20
2018-09-30T19:26:52.562Z,56060.40
2018-09-30T19:29:21.695Z,56084.05
2018-09-30T19:31:52.215Z,56062.46
2018-09-30T19:34:21.690Z,56054.23
2018-09-30T19:36:50.788Z,56079.94
2018-09-30T19:39:19.890Z,56044.98
2018-09-30T19:41:49.070Z,56030.58
2018-09-30T19:44:18.171Z,56039.84
2018-09-30T19:46:47.291Z,56069.65
2018-09-30T19:49:16.402Z,56025.44
2018-09-30T19:51:45.546Z,56075.82
2018-09-30T19:54:14.637Z,56070.68
2018-09-30T19:56:43.756Z,56052.18
2018-09-30T19:59:12.911Z,56054.23
2018-09-30T20:01:42.164Z,56024.41
2018-09-30T20:04:11.265Z,56061.43
2018-09-30T20:06:43.211Z,56059.37
2018-09-30T20:09:12.347Z,56073.77
2018-09-30T20:11:41.488Z,56047.03
2018-09-30T20:14:10.588Z,56034.70
2018-09-30T20:16:39.685Z,56064.51
2018-09-30T20:19:08.821Z,56044.98
2018-09-30T20:21:37.930Z,56065.54
2018-09-30T20:24:07.098Z,56074.80
2018-09-30T20:26:36.234Z,56053.20
2018-09-30T20:29:05.413Z,56052.18
2018-09-30T20:31:34.575Z,56052.18
2018-09-30T20:34:03.674Z,56025.44
2018-09-30T20:36:32.816Z,56074.80
2018-09-30T20:39:01.959Z,56057.32
2018-09-30T20:41:31.089Z,56064.51
2018-09-30T20:44:00.243Z,56052.18
2018-09-30T20:46:29.388Z,56061.43
2018-09-30T20:48:58.537Z,56075.82
2018-09-30T20:51:27.638Z,56060.40
2018-09-30T20:53:56.854Z,56042.92
2018-09-30T20:56:25.922Z,56085.08
2018-09-30T20:58:55.083Z,56049.09
2018-09-30T21:01:24.158Z,56057.32
2018-09-30T21:03:53.282Z,56041.89
2018-09-30T21:06:27.515Z,56071.71
2018-09-30T21:08:56.665Z,56065.54
2018-09-30T21:11:25.849Z,56082.00
2018-09-30T21:13:54.951Z,56067.60
2018-09-30T21:16:24.131Z,56050.12
2018-09-30T21:18:53.233Z,56084.05
2018-09-30T21:21:22.340Z,56057.32
2018-09-30T21:23:51.458Z,56057.32
2018-09-30T21:26:20.618Z,56079.94
2018-09-30T21:28:49.740Z,56062.46
2018-09-30T21:31:18.917Z,56068.62
2018-09-30T21:33:48.075Z,56071.71
2018-09-30T21:36:17.319Z,56064.51
2018-09-30T21:38:46.428Z,56049.09
2018-09-30T21:41:15.597Z,56067.60
2018-09-30T21:43:44.740Z,56053.20
2018-09-30T21:46:13.888Z,56055.26
2018-09-30T21:48:43.130Z,56074.80
2018-09-30T21:51:12.221Z,56046.00
2018-09-30T21:53:41.363Z,56039.84
2018-09-30T21:56:10.513Z,56039.84
2018-09-30T21:58:39.647Z,56032.64
2018-09-30T22:01:08.810Z,56071.71
2018-09-30T22:03:37.969Z,56041.89
2018-09-30T22:06:07.189Z,56076.85
2018-09-30T22:08:36.674Z,56051.14
2018-09-30T22:11:05.806Z,56082.00
2018-09-30T22:13:34.943Z,56021.33
2018-09-30T22:16:04.091Z,56030.58
2018-09-30T22:18:33.280Z,56032.64
2018-09-30T22:21:02.391Z,56051.14
2018-09-30T22:23:31.511Z,56042.92
2018-09-30T22:26:00.676Z,56049.09
2018-09-30T22:28:29.840Z,56056.29
2018-09-30T22:30:58.979Z,56064.51
2018-09-30T22:33:28.213Z,56076.85
2018-09-30T22:35:57.329Z,56040.86
2018-09-30T22:38:26.461Z,56044.98
2018-09-30T22:40:55.606Z,56055.26
2018-09-30T22:43:24.709Z,56061.43
2018-09-30T22:45:53.896Z,56051.14
2018-09-30T22:48:23.033Z,56044.98
2018-09-30T22:50:52.149Z,56055.26
2018-09-30T22:53:21.390Z,56053.20
2018-09-30T22:55:50.459Z,56059.37
2018-09-30T22:58:19.687Z,56069.65
2018-09-30T23:00:48.830Z,56059.37
2018-09-30T23:03:17.961Z,56043.95
2018-09-30T23:05:47.077Z,56032.64
2018-09-30T23:08:16.300Z,56052.18
2018-09-30T23:10:45.371Z,56084.05
2018-09-30T23:13:14.482Z,56038.81
2018-09-30T23:15:43.627Z,56065.54
2018-09-30T23:18:12.779Z,56077.88
2018-09-30T23:20:41.941Z,56020.30
2018-09-30T23:23:11.077Z,56057.32
2018-09-30T23:25:40.203Z,56062.46
2018-09-30T23:28:09.339Z,56041.89
2018-09-30T23:30:38.485Z,56055.26
2018-09-30T23:33:07.630Z,56064.51
2018-09-30T23:35:36.796Z,56067.60
2018-09-30T23:38:05.966Z,56057.32
2018-09-30T23:40:35.090Z,56077.88
2018-09-30T23:43:04.241Z,56080.96
2018-09-30T23:45:33.389Z,56089.19
2018-09-30T23:48:02.537Z,56063.48
2018-09-30T23:50:31.668Z,56061.43
2018-09-30T23:53:00.822Z,56082.00
2018-09-30T23:55:30.005Z,56035.72
2018-09-30T23:58:11.867Z,56054.23
